Time;durP1;ratioP1;P1;durP2;ratioP2;P2;SDS_P1;SDS_P2;PMS_P1;PMS_P2;Temp;Humidity;BMP_temperature;BMP_pressure;BME280_temperature;BME280_humidity;BME280_pressure;Samples;Min_cycle;Max_cycle;Signal;HPM_P1;HPM_P2
2023/06/21 00:01:43;;;;;;;7.28;4.90;;;21.50;85.70;;;;;;5018959;28;20057;-86
2023/06/21 00:04:08;;;;;;;6.57;5.05;;;21.50;85.80;;;;;;5016704;28;20022;-86
2023/06/21 00:06:35;;;;;;;6.68;4.95;;;21.50;85.80;;;;;;5018422;28;20517;-86
2023/06/21 00:09:05;;;;;;;6.60;4.70;;;21.50;85.80;;;;;;5018357;28;20018;-86
2023/06/21 00:11:31;;;;;;;6.57;4.50;;;21.40;85.80;;;;;;5018384;28;20022;-86
2023/06/21 00:13:57;;;;;;;7.20;5.15;;;21.50;85.90;;;;;;5015102;28;20025;-86
2023/06/21 00:16:23;;;;;;;6.47;4.80;;;21.50;85.90;;;;;;5018147;28;20030;-86
2023/06/21 00:18:48;;;;;;;6.68;5.00;;;21.40;85.90;;;;;;5016016;28;20017;-86
2023/06/21 00:21:14;;;;;;;7.28;5.10;;;21.40;85.90;;;;;;5016321;28;20107;-86
2023/06/21 00:23:43;;;;;;;7.03;4.82;;;21.40;85.90;;;;;;5015534;28;20069;-87
2023/06/21 00:26:08;;;;;;;7.68;5.10;;;21.40;85.90;;;;;;5017393;28;20026;-86
2023/06/21 00:28:34;;;;;;;6.85;4.78;;;21.40;86.00;;;;;;5016708;28;20045;-86
2023/06/21 00:31:00;;;;;;;6.55;4.60;;;21.40;86.00;;;;;;4999525;28;20124;-86
2023/06/21 00:33:25;;;;;;;6.75;4.30;;;21.40;86.00;;;;;;4998500;28;20025;-86
2023/06/21 00:35:51;;;;;;;6.32;4.28;;;21.50;86.10;;;;;;5014953;28;20018;-87
2023/06/21 00:38:17;;;;;;;6.35;4.50;;;21.40;86.00;;;;;;4997912;28;20022;-86
2023/06/21 00:40:43;;;;;;;6.43;4.20;;;21.40;86.00;;;;;;4998385;28;20037;-86
2023/06/21 00:43:08;;;;;;;6.45;4.60;;;21.40;86.00;;;;;;4998491;28;20382;-86
2023/06/21 00:45:39;;;;;;;6.93;4.55;;;21.40;86.00;;;;;;4992487;28;20032;-86
2023/06/21 00:48:05;;;;;;;6.32;4.38;;;21.50;85.90;;;;;;4997233;28;20025;-87
2023/06/21 00:50:30;;;;;;;6.93;4.90;;;21.50;85.80;;;;;;5015604;28;20107;-86
2023/06/21 00:52:56;;;;;;;6.70;4.70;;;21.50;85.80;;;;;;4997634;28;20482;-86
2023/06/21 00:55:23;;;;;;;6.50;4.80;;;21.50;85.70;;;;;;4997057;28;20052;-86
2023/06/21 00:57:52;;;;;;;6.90;4.53;;;21.50;85.60;;;;;;4997924;28;20014;-86
2023/06/21 01:00:20;;;;;;;6.45;4.50;;;21.60;85.50;;;;;;4997359;28;20466;-85
2023/06/21 01:02:47;;;;;;;6.68;4.80;;;21.60;85.50;;;;;;5015457;28;20517;-86
2023/06/21 01:05:16;;;;;;;5.53;4.10;;;21.60;85.50;;;;;;4996774;28;20030;-85
2023/06/21 01:08:12;;;;;;;6.15;4.43;;;21.60;85.40;;;;;;4998848;28;20438;-84
2023/06/21 01:11:13;;;;;;;6.40;4.60;;;21.60;85.40;;;;;;5014928;28;20032;-85
2023/06/21 01:13:56;;;;;;;6.15;4.35;;;21.60;85.50;;;;;;4977829;28;20458;-84
2023/06/21 01:16:25;;;;;;;6.80;4.40;;;21.50;85.60;;;;;;4996269;28;20120;-84
2023/06/21 01:18:52;;;;;;;6.10;4.30;;;21.50;85.70;;;;;;5014302;28;20029;-85
2023/06/21 01:21:23;;;;;;;6.07;4.28;;;21.50;85.70;;;;;;4996380;28;20018;-85
2023/06/21 01:24:07;;;;;;;6.45;4.60;;;21.50;85.70;;;;;;4995795;28;20029;-85
2023/06/21 01:27:01;;;;;;;6.45;4.47;;;21.50;85.80;;;;;;4990187;28;20026;-84
2023/06/21 01:29:31;;;;;;;7.25;4.80;;;21.40;85.90;;;;;;4994137;28;20023;-85
2023/06/21 01:31:59;;;;;;;6.80;4.50;;;21.40;86.00;;;;;;4994428;28;20108;-85
2023/06/21 01:34:25;;;;;;;6.95;4.63;;;21.40;85.90;;;;;;5002667;28;20072;-85
2023/06/21 01:36:51;;;;;;;6.93;4.40;;;21.40;85.90;;;;;;4995778;28;20113;-84
2023/06/21 01:39:16;;;;;;;6.30;4.47;;;21.40;86.00;;;;;;4995865;28;20113;-85
2023/06/21 01:41:42;;;;;;;6.38;4.35;;;21.40;86.00;;;;;;4995248;28;20029;-85
2023/06/21 01:44:09;;;;;;;5.80;4.00;;;21.40;86.00;;;;;;4994450;28;20018;-85
2023/06/21 01:46:35;;;;;;;6.07;4.47;;;21.40;86.00;;;;;;4994498;28;20022;-84
2023/06/21 01:49:04;;;;;;;6.28;4.10;;;21.40;86.00;;;;;;4994400;28;20105;-85
2023/06/21 01:51:30;;;;;;;5.60;3.90;;;21.40;86.00;;;;;;4994650;28;20033;-85
2023/06/21 01:53:56;;;;;;;6.78;4.32;;;21.40;86.00;;;;;;5011820;28;20022;-85
2023/06/21 01:56:24;;;;;;;6.10;4.15;;;21.40;86.00;;;;;;4994257;28;20022;-84
2023/06/21 01:58:50;;;;;;;6.70;4.57;;;21.40;86.00;;;;;;5011912;28;20025;-85
2023/06/21 02:01:18;;;;;;;5.63;3.90;;;21.40;86.00;;;;;;5012204;28;20144;-84
2023/06/21 02:03:53;;;;;;;5.93;4.13;;;21.40;86.00;;;;;;4994070;28;20425;-85
2023/06/21 02:06:20;;;;;;;5.53;3.72;;;21.40;86.00;;;;;;5011693;28;20113;-85
2023/06/21 02:08:49;;;;;;;6.60;4.70;;;21.40;85.90;;;;;;4994234;28;20018;-84
2023/06/21 02:11:15;;;;;;;6.15;4.30;;;21.50;85.90;;;;;;5011893;28;20030;-85
2023/06/21 02:13:41;;;;;;;6.10;4.30;;;21.50;85.80;;;;;;4994953;28;20037;-86
2023/06/21 02:16:06;;;;;;;6.03;4.28;;;21.50;85.70;;;;;;4994308;28;20025;-86
2023/06/21 02:18:32;;;;;;;5.85;4.20;;;21.50;85.60;;;;;;5016662;28;20041;-86
2023/06/21 02:20:58;;;;;;;6.15;4.32;;;21.50;85.50;;;;;;5014651;28;20442;-85
2023/06/21 02:23:24;;;;;;;6.03;3.88;;;21.50;85.50;;;;;;5014697;28;20018;-85
2023/06/21 02:25:49;;;;;;;6.57;4.28;;;21.50;85.40;;;;;;4997981;28;20037;-85
2023/06/21 02:28:16;;;;;;;6.88;4.15;;;21.50;85.40;;;;;;5013061;28;20026;-85
2023/06/21 02:30:42;;;;;;;5.72;3.90;;;21.50;85.30;;;;;;4986175;28;20126;-85
2023/06/21 02:33:07;;;;;;;6.60;4.57;;;21.50;85.30;;;;;;4995689;28;20054;-85
2023/06/21 02:35:33;;;;;;;6.55;4.30;;;21.50;85.40;;;;;;5001319;28;20026;-85
2023/06/21 02:38:00;;;;;;;6.20;4.32;;;21.50;85.50;;;;;;4997431;28;20441;-85
2023/06/21 02:40:26;;;;;;;6.50;4.50;;;21.50;85.60;;;;;;4980491;28;997945;-85
2023/06/21 02:42:52;;;;;;;6.30;4.22;;;21.50;85.70;;;;;;5015743;28;20488;-85
2023/06/21 02:45:18;;;;;;;6.65;4.60;;;21.40;85.70;;;;;;4996951;28;20026;-85
2023/06/21 02:47:44;;;;;;;5.93;4.35;;;21.40;85.80;;;;;;5013418;28;20080;-85
2023/06/21 02:50:10;;;;;;;6.10;4.40;;;21.40;85.80;;;;;;5015116;28;20030;-85
2023/06/21 02:52:35;;;;;;;6.40;4.10;;;21.40;85.90;;;;;;5013914;28;20486;-85
2023/06/21 02:55:04;;;;;;;6.03;4.22;;;21.40;85.90;;;;;;4993409;28;20498;-86
2023/06/21 02:57:30;;;;;;;6.93;4.28;;;21.40;86.00;;;;;;4993237;28;20500;-85
2023/06/21 02:59:59;;;;;;;6.30;4.07;;;21.40;86.00;;;;;;5013513;28;20021;-85
2023/06/21 03:02:34;;;;;;;6.53;4.47;;;21.40;86.00;;;;;;5017737;28;20364;-86
2023/06/21 03:05:00;;;;;;;6.45;4.20;;;21.40;86.00;;;;;;5019850;28;20026;-86
2023/06/21 03:07:28;;;;;;;7.20;4.38;;;21.40;86.10;;;;;;5019860;28;20030;-86
2023/06/21 03:09:55;;;;;;;6.32;4.32;;;21.30;86.00;;;;;;5002540;28;20029;-85
2023/06/21 03:12:20;;;;;;;5.90;4.10;;;21.40;86.00;;;;;;5002911;28;20512;-85
2023/06/21 03:14:46;;;;;;;6.10;4.05;;;21.40;86.10;;;;;;5016979;28;20033;-85
2023/06/21 03:17:11;;;;;;;6.93;4.30;;;21.40;86.00;;;;;;4991481;28;20090;-86
2023/06/21 03:19:37;;;;;;;6.15;4.28;;;21.40;86.10;;;;;;5000171;28;20026;-85
2023/06/21 03:22:03;;;;;;;6.25;4.20;;;21.30;85.90;;;;;;4980338;28;20026;-85
2023/06/21 03:24:32;;;;;;;5.90;4.30;;;21.40;86.00;;;;;;4981217;28;20089;-87
2023/06/21 03:26:58;;;;;;;6.28;3.92;;;21.40;86.00;;;;;;5015325;28;20026;-84
2023/06/21 03:29:23;;;;;;;5.70;3.97;;;21.40;86.00;;;;;;4995317;28;20021;-87
2023/06/21 03:31:49;;;;;;;6.05;4.30;;;21.40;86.00;;;;;;5032362;28;20394;-86
2023/06/21 03:34:14;;;;;;;6.40;4.20;;;21.40;86.00;;;;;;5007891;28;20029;-86
2023/06/21 03:36:40;;;;;;;5.80;4.13;;;21.50;85.90;;;;;;4997408;28;20034;-86
2023/06/21 03:39:06;;;;;;;5.47;3.70;;;21.50;85.80;;;;;;5014966;28;20018;-87
2023/06/21 03:41:32;;;;;;;5.93;4.20;;;21.50;85.70;;;;;;5013255;28;20018;-87
2023/06/21 03:43:57;;;;;;;6.07;4.10;;;21.50;85.70;;;;;;5012637;28;20025;-87
2023/06/21 03:46:23;;;;;;;6.15;4.28;;;21.50;85.60;;;;;;4996381;28;20394;-87
2023/06/21 03:48:51;;;;;;;6.22;4.05;;;21.50;85.60;;;;;;5014550;28;20045;-88
2023/06/21 03:51:17;;;;;;;6.00;4.20;;;21.50;85.60;;;;;;5012419;28;20014;-87
2023/06/21 03:53:42;;;;;;;6.18;4.18;;;21.50;85.50;;;;;;4994725;28;20150;-86
2023/06/21 03:56:08;;;;;;;5.75;4.05;;;21.50;85.60;;;;;;4995308;28;20045;-85
2023/06/21 03:58:33;;;;;;;5.88;4.15;;;21.50;85.50;;;;;;5012189;28;20521;-87
2023/06/21 04:00:59;;;;;;;8.18;4.40;;;21.50;85.60;;;;;;5011267;28;20022;-88
2023/06/21 04:03:25;;;;;;;5.63;4.25;;;21.50;85.60;;;;;;5011467;28;20045;-87
2023/06/21 04:05:51;;;;;;;6.05;4.13;;;21.50;85.80;;;;;;4995489;28;20103;-88
2023/06/21 04:08:16;;;;;;;5.85;4.03;;;21.50;85.90;;;;;;4995528;28;20030;-87
2023/06/21 04:10:41;;;;;;;5.93;4.30;;;21.50;86.00;;;;;;5012864;28;20029;-85
2023/06/21 04:13:07;;;;;;;5.88;3.90;;;21.40;85.90;;;;;;5010726;28;20040;-84
2023/06/21 04:15:33;;;;;;;5.93;4.10;;;21.40;86.00;;;;;;5010072;28;20022;-86
2023/06/21 04:17:59;;;;;;;5.80;4.00;;;21.40;86.00;;;;;;5011608;28;20010;-86
2023/06/21 04:20:24;;;;;;;5.95;4.22;;;21.40;86.00;;;;;;4993886;28;20029;-86
2023/06/21 04:22:50;;;;;;;5.70;4.15;;;21.40;86.00;;;;;;5011514;28;20029;-86
2023/06/21 04:25:16;;;;;;;6.05;4.05;;;21.40;86.10;;;;;;4993077;28;20025;-86
2023/06/21 04:27:45;;;;;;;5.97;4.05;;;21.40;86.00;;;;;;5009568;28;20065;-85
2023/06/21 04:30:11;;;;;;;6.20;4.20;;;21.40;86.00;;;;;;5000897;28;20104;-85
2023/06/21 04:32:44;;;;;;;6.05;3.95;;;21.40;86.00;;;;;;4979135;28;20118;-86
2023/06/21 04:35:14;;;;;;;5.85;3.92;;;21.40;86.00;;;;;;4993379;28;20083;-86
2023/06/21 04:37:44;;;;;;;5.70;3.97;;;21.40;86.00;;;;;;5010554;28;20508;-86
2023/06/21 04:40:15;;;;;;;6.00;4.10;;;21.40;86.00;;;;;;4993334;28;20034;-85
2023/06/21 04:42:42;;;;;;;5.68;3.92;;;21.40;86.00;;;;;;5010781;28;20052;-87
2023/06/21 04:45:10;;;;;;;5.80;3.58;;;21.40;86.00;;;;;;5009564;28;20026;-86
2023/06/21 04:47:37;;;;;;;5.65;3.95;;;21.40;86.00;;;;;;4992308;28;20205;-85
2023/06/21 04:50:03;;;;;;;6.40;4.25;;;21.40;85.90;;;;;;5009018;28;20530;-85
2023/06/21 04:52:28;;;;;;;5.97;4.15;;;21.40;86.00;;;;;;5010192;28;20868;-86
2023/06/21 04:54:59;;;;;;;5.93;4.13;;;21.40;86.00;;;;;;5008257;28;20022;-86
2023/06/21 04:57:25;;;;;;;6.35;4.45;;;21.40;85.90;;;;;;5010343;28;20010;-85
2023/06/21 04:59:51;;;;;;;6.20;4.30;;;21.50;85.90;;;;;;4992908;28;20089;-86
2023/06/21 05:02:16;;;;;;;6.00;4.10;;;21.50;85.70;;;;;;5008406;28;20036;-85
2023/06/21 05:04:42;;;;;;;5.95;4.00;;;21.50;85.70;;;;;;5009708;28;20040;-81
2023/06/21 05:07:07;;;;;;;6.13;4.00;;;21.50;85.50;;;;;;4974795;28;20033;-85
2023/06/21 05:09:35;;;;;;;5.38;3.60;;;21.50;85.40;;;;;;4990712;28;20034;-85
2023/06/21 05:12:00;;;;;;;5.68;3.63;;;21.60;85.40;;;;;;4977308;28;20382;-88
2023/06/21 05:14:26;;;;;;;6.05;4.30;;;21.60;85.30;;;;;;5001720;28;20022;-89
2023/06/21 05:16:51;;;;;;;5.47;3.58;;;21.60;85.20;;;;;;4995467;28;20022;-88
2023/06/21 05:19:17;;;;;;;7.50;4.25;;;21.60;85.20;;;;;;4996835;28;20018;-88
2023/06/21 05:21:44;;;;;;;6.60;4.43;;;21.60;85.20;;;;;;4996042;28;20484;-88
2023/06/21 05:24:09;;;;;;;6.95;4.30;;;21.60;85.20;;;;;;5012623;28;20083;-87
2023/06/21 05:26:35;;;;;;;6.32;4.40;;;21.60;85.30;;;;;;5011665;28;20528;-88
2023/06/21 05:29:00;;;;;;;7.47;4.78;;;21.60;85.40;;;;;;4995540;28;20018;-88
2023/06/21 05:31:27;;;;;;;6.65;4.78;;;21.50;85.40;;;;;;4999472;28;20470;-87
2023/06/21 05:33:52;;;;;;;7.07;4.68;;;21.60;85.60;;;;;;5002289;28;20022;-88
2023/06/21 05:36:18;;;;;;;6.50;4.50;;;21.50;85.50;;;;;;5001746;28;20046;-89
2023/06/21 05:38:43;;;;;;;6.68;4.70;;;21.50;85.60;;;;;;5001219;28;20112;-88
2023/06/21 05:41:09;;;;;;;5.95;4.03;;;21.50;85.60;;;;;;5016791;28;20646;-89
2023/06/21 05:43:34;;;;;;;7.05;4.45;;;21.50;85.60;;;;;;5016000;28;20023;-88
2023/06/21 05:45:59;;;;;;;7.05;4.35;;;21.50;85.70;;;;;;4999043;28;20133;-88
2023/06/21 05:48:25;;;;;;;6.72;4.53;;;21.50;85.70;;;;;;5015946;28;20022;-88
2023/06/21 05:50:50;;;;;;;7.55;4.63;;;21.50;85.70;;;;;;5015634;28;20033;-88
2023/06/21 05:53:16;;;;;;;7.10;4.45;;;21.50;85.70;;;;;;5015419;28;20025;-88
2023/06/21 05:55:41;;;;;;;6.20;4.35;;;21.50;85.80;;;;;;5016250;28;20029;-88
2023/06/21 05:58:07;;;;;;;9.20;4.90;;;21.50;85.70;;;;;;4990571;28;20028;-88
2023/06/21 06:00:32;;;;;;;7.78;4.70;;;21.50;85.80;;;;;;5016042;28;20010;-88
2023/06/21 06:02:58;;;;;;;6.75;4.50;;;21.50;85.80;;;;;;5015464;28;20017;-88
2023/06/21 06:05:24;;;;;;;6.43;4.50;;;21.50;85.90;;;;;;5014188;28;20041;-88
2023/06/21 06:07:49;;;;;;;8.13;4.78;;;21.50;85.90;;;;;;4998139;28;20026;-88
2023/06/21 06:10:15;;;;;;;6.43;4.47;;;21.50;85.80;;;;;;5013793;28;20032;-88
2023/06/21 06:12:40;;;;;;;6.80;4.70;;;21.50;85.70;;;;;;4997715;28;20459;-88
2023/06/21 06:15:06;;;;;;;6.97;4.70;;;21.50;85.70;;;;;;5009759;28;20022;-88
2023/06/21 06:17:32;;;;;;;6.85;4.75;;;21.50;85.60;;;;;;4996560;28;20322;-88
2023/06/21 06:19:57;;;;;;;6.78;4.68;;;21.50;85.50;;;;;;5018698;28;20121;-89
2023/06/21 06:22:23;;;;;;;7.10;4.93;;;21.50;85.50;;;;;;5017636;28;20060;-88
2023/06/21 06:24:50;;;;;;;6.78;4.70;;;21.60;85.50;;;;;;5017944;28;20017;-88
2023/06/21 06:27:15;;;;;;;6.80;4.90;;;21.60;85.30;;;;;;4999778;28;20014;-88
2023/06/21 06:29:41;;;;;;;6.38;4.50;;;21.70;85.20;;;;;;4999794;28;20080;-88
2023/06/21 06:32:06;;;;;;;7.15;4.90;;;21.60;85.00;;;;;;4999753;28;20022;-88
2023/06/21 06:34:32;;;;;;;6.32;4.60;;;21.70;84.90;;;;;;5016619;28;20485;-88
2023/06/21 06:36:57;;;;;;;6.57;4.75;;;21.70;84.80;;;;;;5019133;28;20025;-88
2023/06/21 06:39:23;;;;;;;6.22;4.28;;;21.70;84.60;;;;;;5018664;28;20024;-88
2023/06/21 06:41:48;;;;;;;6.68;4.60;;;21.70;84.50;;;;;;5019439;28;20052;-88
2023/06/21 06:44:14;;;;;;;7.35;5.35;;;21.80;84.40;;;;;;5017240;28;20520;-88
2023/06/21 06:46:39;;;;;;;6.78;4.68;;;21.80;84.40;;;;;;4997977;28;20035;-88
2023/06/21 06:49:05;;;;;;;6.93;4.95;;;21.80;84.30;;;;;;4982205;28;20022;-88
2023/06/21 06:51:30;;;;;;;7.57;5.28;;;21.80;84.30;;;;;;4997995;28;20014;-88
2023/06/21 06:53:56;;;;;;;6.43;4.32;;;21.80;84.40;;;;;;4997798;28;20052;-88
2023/06/21 06:56:21;;;;;;;6.93;4.90;;;21.80;84.30;;;;;;4999954;28;20022;-88
2023/06/21 06:58:47;;;;;;;6.28;4.50;;;21.70;84.40;;;;;;5016852;28;20022;-88
2023/06/21 07:01:14;;;;;;;6.82;4.80;;;21.70;84.50;;;;;;5017275;28;20087;-88
2023/06/21 07:03:40;;;;;;;6.90;4.78;;;21.70;84.60;;;;;;5015166;28;20443;-88
2023/06/21 07:06:06;;;;;;;6.90;4.88;;;21.70;84.70;;;;;;4999307;28;20129;-89
2023/06/21 07:08:31;;;;;;;7.07;4.82;;;21.70;84.80;;;;;;5017391;28;20022;-88
2023/06/21 07:10:57;;;;;;;6.97;5.18;;;21.70;84.70;;;;;;4999039;28;20466;-88
2023/06/21 07:13:23;;;;;;;7.10;5.00;;;21.70;84.70;;;;;;4999056;28;20049;-88
2023/06/21 07:15:49;;;;;;;7.68;4.97;;;21.70;84.60;;;;;;5009259;28;20025;-88
2023/06/21 07:18:14;;;;;;;6.57;4.80;;;21.70;84.70;;;;;;5017006;28;20069;-88
2023/06/21 07:20:41;;;;;;;7.78;5.00;;;21.70;84.70;;;;;;5016624;28;20022;-88
2023/06/21 07:23:06;;;;;;;7.43;5.32;;;21.70;84.70;;;;;;5015493;28;20049;-88
2023/06/21 07:25:32;;;;;;;6.95;4.97;;;21.70;84.60;;;;;;4998024;28;20076;-88
2023/06/21 07:27:57;;;;;;;7.20;5.20;;;21.70;84.70;;;;;;4999307;28;20033;-88
2023/06/21 07:30:23;;;;;;;6.63;4.80;;;21.70;84.70;;;;;;5016489;28;20029;-89
2023/06/21 07:32:50;;;;;;;6.88;4.95;;;21.70;84.60;;;;;;4998637;28;20112;-88
2023/06/21 07:35:16;;;;;;;7.10;5.20;;;21.70;84.60;;;;;;4998089;28;20045;-88
2023/06/21 07:37:42;;;;;;;7.25;5.20;;;21.80;84.70;;;;;;4998458;28;20025;-88
2023/06/21 07:40:08;;;;;;;7.30;4.88;;;21.80;84.60;;;;;;4997746;28;20030;-88
2023/06/21 07:42:34;;;;;;;6.90;5.00;;;21.80;84.60;;;;;;4998126;28;20519;-88
2023/06/21 07:45:00;;;;;;;8.23;5.22;;;21.80;84.50;;;;;;4997901;28;20042;-88
2023/06/21 07:47:25;;;;;;;7.07;5.20;;;21.80;84.40;;;;;;5014471;28;20096;-88
2023/06/21 07:49:51;;;;;;;7.13;5.28;;;21.80;84.40;;;;;;5016137;28;20505;-88
2023/06/21 07:52:17;;;;;;;7.55;5.43;;;21.90;84.20;;;;;;5014353;28;20103;-89
2023/06/21 07:54:47;;;;;;;7.35;5.50;;;21.90;84.10;;;;;;4996985;28;20088;-87
2023/06/21 07:57:17;;;;;;;7.20;5.30;;;22.00;83.90;;;;;;4997889;28;20018;-88
2023/06/21 07:59:43;;;;;;;6.88;5.03;;;22.00;83.80;;;;;;5015698;28;20041;-88
2023/06/21 08:02:13;;;;;;;7.00;5.10;;;22.00;83.60;;;;;;5013953;28;20029;-86
2023/06/21 08:04:39;;;;;;;7.95;5.70;;;22.10;83.50;;;;;;5013840;28;20021;-88
2023/06/21 08:07:05;;;;;;;7.10;5.18;;;22.10;83.50;;;;;;4997051;28;20542;-88
2023/06/21 08:09:31;;;;;;;7.63;5.25;;;22.00;83.30;;;;;;5013927;28;20026;-87
2023/06/21 08:11:57;;;;;;;6.97;5.13;;;22.20;83.30;;;;;;5014711;28;20115;-88
2023/06/21 08:14:22;;;;;;;7.30;5.32;;;22.20;83.30;;;;;;5010125;28;20027;-88
2023/06/21 08:16:48;;;;;;;7.00;5.20;;;22.20;83.30;;;;;;4996870;28;20084;-88
2023/06/21 08:19:13;;;;;;;7.05;5.25;;;22.20;83.30;;;;;;4997103;28;20057;-88
2023/06/21 08:21:39;;;;;;;8.40;5.97;;;22.20;83.30;;;;;;4997120;28;20603;-88
2023/06/21 08:24:05;;;;;;;6.90;5.20;;;22.10;83.30;;;;;;4996565;28;20014;-87
2023/06/21 08:26:30;;;;;;;7.53;5.43;;;22.20;83.50;;;;;;4996899;28;20419;-87
2023/06/21 08:28:56;;;;;;;7.32;5.50;;;22.10;83.30;;;;;;5013025;28;20542;-87
2023/06/21 08:31:21;;;;;;;7.43;5.45;;;22.10;83.40;;;;;;5013146;28;20025;-87
2023/06/21 08:33:47;;;;;;;7.80;5.65;;;22.20;83.40;;;;;;5012443;28;20359;-88
2023/06/21 08:36:12;;;;;;;7.35;5.35;;;22.20;83.40;;;;;;4996542;28;20113;-88
2023/06/21 08:38:38;;;;;;;7.70;5.68;;;22.20;83.40;;;;;;4996340;28;20025;-88
2023/06/21 08:41:04;;;;;;;8.18;5.50;;;22.20;83.40;;;;;;4996296;28;20017;-87
2023/06/21 08:43:31;;;;;;;7.28;5.22;;;22.20;83.50;;;;;;4996267;28;20063;-88
2023/06/21 08:45:57;;;;;;;7.32;5.25;;;22.20;83.40;;;;;;5016219;28;20064;-88
2023/06/21 08:48:24;;;;;;;7.75;5.53;;;22.20;83.30;;;;;;5019921;28;20068;-88
2023/06/21 08:50:52;;;;;;;7.05;5.50;;;22.20;83.30;;;;;;5001862;28;20560;-88
2023/06/21 08:53:28;;;;;;;7.63;5.63;;;22.20;83.20;;;;;;5017448;28;20098;-88
2023/06/21 08:55:54;;;;;;;7.32;5.53;;;22.30;83.30;;;;;;5017739;28;20057;-88
2023/06/21 08:58:25;;;;;;;7.60;5.55;;;22.30;83.30;;;;;;5007455;28;20096;-88
2023/06/21 09:00:53;;;;;;;7.13;5.60;;;22.30;83.30;;;;;;5018265;28;20014;-88
2023/06/21 09:03:36;;;;;;;7.20;5.30;;;22.30;83.40;;;;;;5017065;28;20382;-88
2023/06/21 09:06:16;;;;;;;6.88;5.28;;;22.30;83.30;;;;;;5010488;28;20507;-88
2023/06/21 09:08:42;;;;;;;7.22;5.55;;;22.30;83.30;;;;;;4996711;28;20034;-88
2023/06/21 09:11:11;;;;;;;7.82;6.00;;;22.30;83.20;;;;;;4995986;28;20635;-88
2023/06/21 09:13:37;;;;;;;8.13;5.47;;;22.30;83.20;;;;;;4997049;28;20066;-88
2023/06/21 09:16:03;;;;;;;7.07;5.38;;;22.30;83.20;;;;;;4999316;28;20057;-88
2023/06/21 09:18:35;;;;;;;7.75;5.45;;;22.40;83.10;;;;;;4999368;28;20040;-88
2023/06/21 09:21:02;;;;;;;6.78;5.10;;;22.40;83.00;;;;;;4998892;28;20018;-88
2023/06/21 09:23:28;;;;;;;7.53;5.63;;;22.40;82.90;;;;;;4998782;28;20022;-88
2023/06/21 09:25:55;;;;;;;6.65;5.07;;;22.40;82.80;;;;;;4993049;28;20048;-88
2023/06/21 09:28:21;;;;;;;7.20;5.68;;;22.50;82.70;;;;;;5016587;28;20036;-87
2023/06/21 09:30:46;;;;;;;7.30;5.35;;;22.50;82.60;;;;;;5016232;28;20022;-88
2023/06/21 09:33:12;;;;;;;7.00;5.30;;;22.50;82.60;;;;;;5001012;28;20049;-88
2023/06/21 09:35:38;;;;;;;7.00;4.97;;;22.50;82.60;;;;;;5019406;28;20064;-88
2023/06/21 09:38:26;;;;;;;7.13;5.55;;;22.50;82.70;;;;;;5000862;28;20071;-88
2023/06/21 09:40:52;;;;;;;7.15;5.10;;;22.40;82.80;;;;;;5018123;28;20022;-88
2023/06/21 09:43:19;;;;;;;7.10;5.45;;;22.40;82.90;;;;;;5016305;28;20022;-88
2023/06/21 09:46:04;;;;;;;7.15;5.50;;;22.40;83.10;;;;;;5016723;28;20386;-88
2023/06/21 09:48:37;;;;;;;7.57;5.75;;;22.30;83.10;;;;;;4999897;28;20112;-88
2023/06/21 09:51:05;;;;;;;7.70;5.57;;;22.30;83.30;;;;;;4999643;28;20018;-89
2023/06/21 09:53:31;;;;;;;7.47;5.53;;;22.30;83.40;;;;;;4998564;28;20089;-88
2023/06/21 09:55:57;;;;;;;6.93;5.22;;;22.30;83.30;;;;;;5016545;28;20057;-89
2023/06/21 09:58:23;;;;;;;7.20;5.53;;;22.30;83.20;;;;;;4990824;28;20072;-88
2023/06/21 10:00:49;;;;;;;7.10;5.43;;;22.30;83.20;;;;;;4998278;28;20042;-88
2023/06/21 10:03:14;;;;;;;7.35;5.38;;;22.40;83.20;;;;;;5015739;28;20236;-89
2023/06/21 10:05:57;;;;;;;6.80;5.18;;;22.40;83.20;;;;;;5013796;28;20029;-88
2023/06/21 10:08:31;;;;;;;6.72;5.20;;;22.40;83.20;;;;;;4978371;28;20543;-88
2023/06/21 10:10:57;;;;;;;7.15;4.93;;;22.40;83.20;;;;;;4979369;28;20045;-88
2023/06/21 10:13:30;;;;;;;6.95;5.13;;;22.40;83.20;;;;;;4981598;28;20447;-88
2023/06/21 10:15:56;;;;;;;7.45;5.65;;;22.40;83.20;;;;;;5017409;28;20026;-88
2023/06/21 10:18:22;;;;;;;6.80;5.13;;;22.40;83.10;;;;;;5018844;28;20097;-89
2023/06/21 10:20:54;;;;;;;7.20;5.65;;;22.40;83.00;;;;;;5001091;28;20541;-87
2023/06/21 10:23:21;;;;;;;7.35;5.60;;;22.40;83.00;;;;;;5000653;28;20053;-88
2023/06/21 10:25:48;;;;;;;6.93;5.13;;;22.50;83.00;;;;;;5000308;28;20026;-88
2023/06/21 10:28:17;;;;;;;7.45;5.28;;;22.50;83.00;;;;;;5000409;28;20022;-88
2023/06/21 10:30:45;;;;;;;7.05;5.28;;;22.50;83.00;;;;;;5019764;28;20076;-88
2023/06/21 10:33:14;;;;;;;8.13;5.50;;;22.50;82.90;;;;;;5018383;28;20112;-88
2023/06/21 10:35:45;;;;;;;6.68;4.72;;;22.50;82.90;;;;;;4999487;28;20025;-88
2023/06/21 10:38:11;;;;;;;7.22;5.40;;;22.40;82.90;;;;;;5000056;28;20029;-87
2023/06/21 10:40:37;;;;;;;7.00;5.00;;;22.40;83.00;;;;;;5000142;28;20068;-89
2023/06/21 10:43:04;;;;;;;6.95;5.25;;;22.40;83.10;;;;;;5017288;28;20378;-88
2023/06/21 10:45:30;;;;;;;6.93;4.90;;;22.40;83.20;;;;;;4999163;28;20033;-89
2023/06/21 10:47:57;;;;;;;6.63;5.05;;;22.40;83.10;;;;;;4999642;28;20033;-88
2023/06/21 10:50:24;;;;;;;7.07;5.10;;;22.50;83.10;;;;;;4999623;28;20029;-88
2023/06/21 10:52:57;;;;;;;6.53;4.80;;;22.50;82.90;;;;;;5017615;28;20470;-88
2023/06/21 10:55:23;;;;;;;6.53;4.93;;;22.50;82.80;;;;;;4995947;28;20026;-88
2023/06/21 10:57:53;;;;;;;6.90;5.28;;;22.50;82.60;;;;;;5014377;28;20120;-87
2023/06/21 11:00:21;;;;;;;6.88;5.03;;;22.60;82.50;;;;;;4999060;28;20029;-88
2023/06/21 11:02:47;;;;;;;6.93;5.35;;;22.60;82.40;;;;;;4999157;28;20520;-88
2023/06/21 11:05:26;;;;;;;7.28;4.80;;;22.60;82.50;;;;;;5016406;28;20041;-87
2023/06/21 11:08:04;;;;;;;6.60;4.93;;;22.60;82.50;;;;;;4999320;28;20112;-88
2023/06/21 11:10:40;;;;;;;6.35;4.70;;;22.60;82.40;;;;;;5016904;28;20046;-88
2023/06/21 11:13:06;;;;;;;6.70;5.25;;;22.60;82.40;;;;;;5016497;28;20084;-88
2023/06/21 11:15:33;;;;;;;6.93;5.18;;;22.60;82.50;;;;;;5015584;28;20379;-88
2023/06/21 11:18:05;;;;;;;6.65;5.05;;;22.60;82.40;;;;;;4978753;28;20018;-88
2023/06/21 11:20:43;;;;;;;6.72;5.00;;;22.60;82.40;;;;;;4979006;28;20129;-88
2023/06/21 11:23:09;;;;;;;7.25;5.40;;;22.60;83.00;;;;;;4978481;28;20028;-88
2023/06/21 11:25:38;;;;;;;6.28;4.57;;;22.60;82.60;;;;;;4992584;28;20038;-88
2023/06/21 11:28:19;;;;;;;7.05;4.90;;;22.60;82.60;;;;;;4998208;28;20049;-88
2023/06/21 11:31:02;;;;;;;;;;;22.50;82.70;;;;;;4998338;28;20442;-88
2023/06/21 11:33:29;;;;;;;6.80;5.00;;;22.50;82.70;;;;;;4997431;28;19932;-88
2023/06/21 11:36:06;;;;;;;6.65;4.97;;;22.50;82.90;;;;;;4986947;28;20049;-89
2023/06/21 11:38:33;;;;;;;7.07;5.10;;;22.50;82.90;;;;;;4997488;28;20381;-87
2023/06/21 11:40:59;;;;;;;6.47;4.80;;;22.50;82.90;;;;;;4997483;28;20017;-88
2023/06/21 11:43:25;;;;;;;6.85;4.90;;;22.50;82.90;;;;;;5014833;28;20057;-86
2023/06/21 11:46:02;;;;;;;6.85;4.95;;;22.40;82.90;;;;;;4996461;28;20386;-88
2023/06/21 11:48:29;;;;;;;6.68;4.97;;;22.50;83.00;;;;;;5014922;28;20022;-87
2023/06/21 11:51:07;;;;;;;6.70;5.03;;;22.50;83.00;;;;;;4997376;28;20022;-88
2023/06/21 11:53:41;;;;;;;6.65;4.90;;;22.50;83.10;;;;;;4996892;28;20221;-88
2023/06/21 11:56:16;;;;;;;6.70;5.18;;;22.40;83.10;;;;;;5011434;28;20025;-87
2023/06/21 11:58:41;;;;;;;6.20;4.80;;;22.50;83.20;;;;;;5016203;28;20057;-88
2023/06/21 12:01:07;;;;;;;7.07;4.80;;;22.40;83.20;;;;;;5019129;28;20018;-88
2023/06/21 12:03:33;;;;;;;6.47;4.70;;;22.40;83.20;;;;;;5017657;28;20018;-88
2023/06/21 12:06:00;;;;;;;7.20;4.97;;;22.50;83.30;;;;;;4992906;28;20026;-88
2023/06/21 12:08:36;;;;;;;6.32;4.60;;;22.40;83.20;;;;;;5000776;28;20022;-88
2023/06/21 12:11:10;;;;;;;6.70;5.00;;;22.50;83.30;;;;;;5001611;28;20116;-88
2023/06/21 12:13:37;;;;;;;6.50;4.72;;;22.50;83.20;;;;;;4999864;28;20036;-88
2023/06/21 12:16:07;;;;;;;6.55;4.93;;;22.50;83.20;;;;;;5000294;28;20045;-88
2023/06/21 12:18:34;;;;;;;6.45;4.65;;;22.50;83.10;;;;;;4987159;28;20072;-88
2023/06/21 12:21:02;;;;;;;6.63;4.57;;;22.50;83.10;;;;;;4998843;28;20030;-88
2023/06/21 12:23:28;;;;;;;6.45;4.72;;;22.40;83.00;;;;;;4981113;28;20112;-88
2023/06/21 12:26:02;;;;;;;7.25;5.20;;;22.50;83.00;;;;;;5017423;28;20474;-88
2023/06/21 12:28:30;;;;;;;6.50;4.55;;;22.50;83.00;;;;;;4994279;28;20474;-88
2023/06/21 12:31:04;;;;;;;6.65;5.05;;;22.50;83.10;;;;;;4979968;28;20510;-88
2023/06/21 12:33:30;;;;;;;6.97;5.00;;;22.50;83.10;;;;;;4979216;28;20030;-88
2023/06/21 12:36:16;;;;;;;6.90;4.78;;;22.50;83.10;;;;;;5016760;28;20021;-87
2023/06/21 12:38:49;;;;;;;6.55;4.60;;;22.50;83.10;;;;;;5016603;28;20378;-88
2023/06/21 12:41:17;;;;;;;6.47;4.80;;;22.40;83.10;;;;;;5016556;28;20645;-88
2023/06/21 12:43:44;;;;;;;6.85;4.80;;;22.50;83.20;;;;;;4998727;28;20032;-89
2023/06/21 12:46:11;;;;;;;6.40;4.68;;;22.40;83.20;;;;;;5018733;28;20037;-87
2023/06/21 12:48:42;;;;;;;6.18;4.40;;;22.40;83.20;;;;;;5018756;28;20022;-88
2023/06/21 12:51:08;;;;;;;6.85;5.10;;;22.40;83.20;;;;;;5016723;28;20042;-88